createdAt,value
2019-02-08T00:00:04.974Z,51.54
2019-02-08T00:01:04.989Z,54.86
2019-02-08T00:02:04.950Z,56.27
2019-02-08T00:03:04.949Z,56.27
2019-02-08T00:04:04.944Z,55.52
2019-02-08T00:05:04.941Z,51.73
2019-02-08T00:06:04.954Z,54.47
2019-02-08T00:07:04.927Z,54.86
2019-02-08T00:08:04.916Z,54.76
2019-02-08T00:09:04.914Z,50.31
2019-02-08T00:10:04.905Z,52.87
2019-02-08T00:11:04.933Z,54.47
2019-02-08T00:12:04.895Z,55.43
2019-02-08T00:13:04.890Z,50.78
2019-02-08T00:14:04.885Z,52.77
2019-02-08T00:15:04.880Z,50.95
2019-02-08T00:16:04.909Z,49.62
2019-02-08T00:17:04.871Z,53.91
2019-02-08T00:18:04.867Z,56.56
2019-02-08T00:19:04.858Z,52.58
2019-02-08T00:20:04.853Z,52.94
2019-02-08T00:21:04.879Z,52.75
2019-02-08T00:22:04.848Z,51.23
2019-02-08T00:23:04.845Z,50.76
2019-02-08T00:24:04.832Z,48.29
2019-02-08T00:25:04.828Z,47.53
2019-02-08T00:26:04.865Z,46.40
2019-02-08T00:27:04.815Z,44.89
2019-02-08T00:28:04.808Z,47.53
2019-02-08T00:29:04.806Z,47.91
2019-02-08T00:30:04.800Z,46.02
2019-02-08T00:31:04.820Z,46.31
2019-02-08T00:32:04.790Z,49.74
2019-02-08T00:33:04.782Z,46.21
2019-02-08T00:34:04.778Z,47.25
2019-02-08T00:35:04.771Z,47.72
2019-02-08T00:36:04.791Z,45.64
2019-02-08T00:37:04.758Z,45.86
2019-02-08T00:38:04.754Z,46.90
2019-02-08T00:39:04.746Z,46.40
2019-02-08T00:40:04.745Z,45.67
2019-02-08T00:41:04.771Z,42.35
2019-02-08T00:42:04.731Z,43.39
2019-02-08T00:43:04.724Z,42.80
2019-02-08T00:44:04.722Z,40.53
2019-02-08T00:45:04.713Z,39.41
2019-02-08T00:46:04.739Z,39.03
2019-02-08T00:47:04.711Z,41.02
2019-02-08T00:48:04.698Z,41.97
2019-02-08T00:49:04.692Z,41.40
2019-02-08T00:50:04.684Z,40.93
2019-02-08T00:51:04.710Z,40.74
2019-02-08T00:52:04.679Z,43.01
2019-02-08T00:53:04.690Z,42.25
2019-02-08T00:54:04.665Z,41.97
2019-02-08T00:55:04.666Z,42.25
2019-02-08T00:56:04.693Z,44.43
2019-02-08T00:57:04.652Z,40.83
2019-02-08T00:58:04.646Z,44.62
2019-02-08T00:59:04.648Z,44.53
2019-02-08T01:00:04.637Z,42.25
2019-02-08T01:01:04.656Z,42.63
2019-02-08T01:02:04.623Z,42.82
2019-02-08T01:03:04.616Z,43.77
2019-02-08T01:04:04.612Z,46.42
2019-02-08T01:05:05.444Z,43.87
2019-02-08T01:06:04.633Z,47.75
2019-02-08T01:07:04.597Z,48.22
2019-02-08T01:08:04.591Z,45.67
2019-02-08T01:09:04.593Z,47.85
2019-02-08T01:10:04.579Z,50.78
2019-02-08T01:11:04.605Z,51.54
2019-02-08T01:12:04.574Z,47.09
2019-02-08T01:13:04.585Z,46.33
2019-02-08T01:14:04.561Z,50.31
2019-02-08T01:15:04.591Z,54.47
2019-02-08T01:16:04.585Z,55.52
2019-02-08T01:17:04.547Z,52.11
2019-02-08T01:18:04.542Z,55.14
2019-02-08T01:19:04.535Z,54.95
2019-02-08T01:20:04.552Z,57.89
2019-02-08T01:21:04.556Z,54.57
2019-02-08T01:22:04.518Z,57.79
2019-02-08T01:23:04.519Z,55.43
2019-02-08T01:24:04.511Z,52.96
2019-02-08T01:25:04.507Z,55.62
2019-02-08T01:26:04.528Z,56.75
2019-02-08T01:27:04.494Z,56.27
2019-02-08T01:28:04.490Z,54.95
2019-02-08T01:29:04.489Z,56.75
2019-02-08T01:30:04.479Z,59.69
2019-02-08T01:31:04.502Z,55.24
2019-02-08T01:32:04.470Z,60.35
2019-02-08T01:33:04.466Z,62.24
2019-02-08T01:34:04.460Z,61.11
2019-02-08T01:35:04.456Z,60.16
2019-02-08T01:36:04.480Z,61.77
2019-02-08T01:37:04.446Z,60.35
2019-02-08T01:38:04.438Z,57.89
2019-02-08T01:39:04.434Z,62.72
2019-02-08T01:40:04.432Z,59.69
2019-02-08T01:41:04.470Z,61.58
2019-02-08T01:42:04.429Z,63.29
2019-02-08T01:43:04.416Z,61.49
2019-02-08T01:44:04.408Z,60.25
2019-02-08T01:45:04.412Z,60.16
2019-02-08T01:46:04.429Z,61.87
2019-02-08T01:47:04.399Z,64.42
2019-02-08T01:48:04.390Z,64.61
2019-02-08T01:49:04.384Z,62.24
2019-02-08T01:50:04.381Z,64.42
2019-02-08T01:51:04.402Z,66.41
2019-02-08T01:52:04.368Z,62.15
2019-02-08T01:53:04.364Z,60.25
2019-02-08T01:54:04.361Z,61.02
2019-02-08T01:55:04.383Z,62.72
2019-02-08T01:56:04.358Z,59.78
2019-02-08T01:57:04.344Z,63.48
2019-02-08T01:58:04.340Z,64.71
2019-02-08T01:59:04.333Z,61.58
2019-02-08T02:00:04.359Z,65.56
2019-02-08T02:01:04.348Z,64.81
2019-02-08T02:02:04.320Z,68.40
2019-02-08T02:03:04.315Z,68.12
2019-02-08T02:04:05.256Z,68.40
2019-02-08T02:05:04.307Z,68.79
2019-02-08T02:06:04.327Z,67.93
2019-02-08T02:07:04.294Z,70.01
2019-02-08T02:08:04.289Z,68.31
2019-02-08T02:09:04.279Z,65.84
2019-02-08T02:10:04.277Z,66.99
2019-02-08T02:11:04.301Z,65.28
2019-02-08T02:12:04.269Z,64.23
2019-02-08T02:13:04.264Z,64.23
2019-02-08T02:14:04.256Z,65.75
2019-02-08T02:15:04.250Z,63.57
2019-02-08T02:16:04.288Z,64.81
2019-02-08T02:17:04.240Z,62.53
2019-02-08T02:18:04.235Z,63.85
2019-02-08T02:19:04.229Z,60.92
2019-02-08T02:20:04.223Z,60.92
2019-02-08T02:21:04.248Z,64.81
2019-02-08T02:22:04.212Z,64.71
2019-02-08T02:23:04.207Z,65.19
2019-02-08T02:24:04.203Z,64.90
2019-02-08T02:25:04.204Z,63.67
2019-02-08T02:26:04.218Z,64.71
2019-02-08T02:27:04.192Z,66.13
2019-02-08T02:28:04.183Z,66.99
2019-02-08T02:29:04.174Z,66.86
2019-02-08T02:30:04.171Z,69.54
2019-02-08T02:31:04.191Z,71.34
2019-02-08T02:32:04.160Z,72.86
2019-02-08T02:33:04.160Z,72.00
2019-02-08T02:34:04.151Z,77.31
2019-02-08T02:35:04.153Z,75.89
2019-02-08T02:36:04.180Z,78.45
2019-02-08T02:37:04.164Z,78.35
2019-02-08T02:38:04.131Z,80.82
2019-02-08T02:39:04.122Z,82.90
2019-02-08T02:40:04.118Z,84.32
2019-02-08T02:41:04.110Z,84.23
2019-02-08T02:42:04.129Z,84.32
2019-02-08T02:43:04.101Z,81.67
2019-02-08T02:44:04.107Z,81.48
2019-02-08T02:45:04.093Z,78.64
2019-02-08T02:46:04.083Z,80.25
2019-02-08T02:47:04.109Z,81.76
2019-02-08T02:48:04.082Z,79.49
2019-02-08T02:49:04.075Z,81.67
2019-02-08T02:50:04.062Z,82.52
2019-02-08T02:51:04.061Z,80.44
2019-02-08T02:52:04.080Z,80.34
2019-02-08T02:53:04.051Z,81.38
2019-02-08T02:54:05.113Z,81.67
2019-02-08T02:55:04.036Z,82.90
2019-02-08T02:56:04.036Z,79.21
2019-02-08T02:57:04.053Z,81.48
2019-02-08T02:58:04.024Z,82.05
2019-02-08T02:59:04.020Z,82.81
2019-02-08T03:00:04.013Z,83.37
2019-02-08T03:01:04.004Z,85.36
2019-02-08T03:02:04.027Z,84.70
2019-02-08T03:03:03.999Z,84.23
2019-02-08T03:04:03.987Z,81.86
2019-02-08T03:05:03.982Z,80.63
2019-02-08T03:06:03.987Z,77.88
2019-02-08T03:07:03.999Z,77.59
2019-02-08T03:08:03.970Z,77.50
2019-02-08T03:09:03.969Z,77.69
2019-02-08T03:10:03.956Z,77.22
2019-02-08T03:11:03.941Z,77.22
2019-02-08T03:12:03.974Z,76.08
2019-02-08T03:13:03.945Z,77.12
2019-02-08T03:14:03.935Z,79.21
2019-02-08T03:15:03.931Z,75.23
2019-02-08T03:16:03.926Z,75.51
2019-02-08T03:17:03.949Z,75.79
2019-02-08T03:18:03.914Z,74.85
2019-02-08T03:19:03.910Z,73.61
2019-02-08T03:20:03.903Z,75.42
2019-02-08T03:21:03.899Z,75.89
2019-02-08T03:22:03.917Z,76.84
2019-02-08T03:23:03.892Z,73.14
2019-02-08T03:24:03.883Z,74.09
2019-02-08T03:25:03.880Z,75.23
2019-02-08T03:26:03.899Z,74.09
2019-02-08T03:27:03.893Z,75.04
2019-02-08T03:28:03.867Z,74.28
2019-02-08T03:29:03.855Z,74.66
2019-02-08T03:30:03.850Z,73.71
2019-02-08T03:31:03.843Z,73.14
2019-02-08T03:32:03.868Z,73.05
2019-02-08T03:33:03.871Z,74.85
2019-02-08T03:34:03.835Z,75.13
2019-02-08T03:35:03.827Z,75.04
2019-02-08T03:36:03.818Z,73.52
2019-02-08T03:37:03.838Z,75.70
2019-02-08T03:38:03.807Z,76.17
2019-02-08T03:39:03.800Z,75.13
2019-02-08T03:40:03.799Z,75.32
2019-02-08T03:41:03.788Z,74.85
2019-02-08T03:42:03.811Z,73.80
2019-02-08T03:43:03.781Z,74.37
2019-02-08T03:44:03.773Z,75.32
2019-02-08T03:45:03.772Z,74.28
2019-02-08T03:46:03.768Z,74.95
2019-02-08T03:47:03.785Z,74.66
2019-02-08T03:48:03.763Z,72.67
2019-02-08T03:49:03.748Z,74.28
2019-02-08T03:50:03.741Z,74.37
2019-02-08T03:51:03.735Z,74.75
2019-02-08T03:52:03.763Z,74.75
2019-02-08T03:53:03.731Z,75.70
2019-02-08T03:54:03.724Z,75.42
2019-02-08T03:55:03.715Z,74.95
2019-02-08T03:56:03.711Z,74.09
2019-02-08T03:57:03.731Z,75.04
2019-02-08T03:58:03.697Z,76.36
2019-02-08T03:59:03.690Z,75.32
2019-02-08T04:00:03.692Z,73.43
2019-02-08T04:01:03.689Z,73.52
2019-02-08T04:02:03.701Z,73.80
2019-02-08T04:03:03.676Z,73.52
2019-02-08T04:04:03.667Z,72.57
2019-02-08T04:05:03.666Z,72.96
2019-02-08T04:06:03.655Z,73.33
2019-02-08T04:07:03.680Z,74.28
2019-02-08T04:08:03.658Z,73.43
2019-02-08T04:09:03.642Z,72.29
2019-02-08T04:10:03.640Z,70.97
2019-02-08T04:11:03.630Z,70.58
2019-02-08T04:12:03.652Z,70.87
2019-02-08T04:13:03.620Z,68.12
2019-02-08T04:14:03.616Z,69.92
2019-02-08T04:15:03.610Z,68.02
2019-02-08T04:16:03.615Z,68.50
2019-02-08T04:17:03.632Z,69.07
2019-02-08T04:18:03.593Z,69.73
2019-02-08T04:19:03.585Z,68.59
2019-02-08T04:20:03.597Z,69.92
2019-02-08T04:21:03.578Z,70.01
2019-02-08T04:22:03.600Z,70.11
2019-02-08T04:23:03.568Z,68.88
2019-02-08T04:24:03.561Z,68.02
2019-02-08T04:25:03.560Z,66.99
2019-02-08T04:26:03.549Z,67.65
2019-02-08T04:27:03.573Z,67.74
2019-02-08T04:28:03.547Z,68.12
2019-02-08T04:29:03.545Z,67.83
2019-02-08T04:30:03.530Z,67.83
2019-02-08T04:31:03.527Z,68.40
2019-02-08T04:32:03.557Z,68.59
2019-02-08T04:33:03.518Z,65.75
2019-02-08T04:34:03.514Z,66.32
2019-02-08T04:35:03.500Z,66.32
2019-02-08T04:36:03.516Z,66.13
2019-02-08T04:37:03.522Z,66.22
2019-02-08T04:38:03.493Z,66.99
2019-02-08T04:39:03.514Z,64.52
2019-02-08T04:40:03.515Z,65.56
2019-02-08T04:41:03.469Z,65.00
2019-02-08T04:42:03.482Z,66.13
2019-02-08T04:43:03.488Z,66.22
2019-02-08T04:44:03.461Z,68.02
2019-02-08T04:45:03.461Z,66.99
2019-02-08T04:46:03.463Z,65.66
2019-02-08T04:47:03.437Z,64.71
2019-02-08T04:48:03.469Z,65.94
2019-02-08T04:49:03.428Z,66.13
2019-02-08T04:50:03.418Z,67.27
2019-02-08T04:51:03.452Z,66.22
2019-02-08T04:52:03.412Z,64.81
2019-02-08T04:53:03.433Z,64.61
2019-02-08T04:54:03.401Z,64.42
2019-02-08T04:55:03.399Z,64.04
2019-02-08T04:56:03.390Z,65.47
2019-02-08T04:57:03.384Z,65.00
2019-02-08T04:58:03.402Z,61.58
2019-02-08T04:59:03.374Z,61.68
2019-02-08T05:00:03.366Z,64.61
2019-02-08T05:01:03.372Z,63.20
2019-02-08T05:02:03.361Z,63.85
2019-02-08T05:03:03.380Z,63.29
2019-02-08T05:04:03.345Z,63.67
2019-02-08T05:05:03.357Z,63.01
2019-02-08T05:06:03.337Z,61.49
2019-02-08T05:07:03.335Z,63.85
2019-02-08T05:08:03.364Z,64.23
2019-02-08T05:09:03.318Z,63.76
2019-02-08T05:10:03.315Z,63.57
2019-02-08T05:11:03.307Z,64.90
2019-02-08T05:12:03.302Z,66.03
2019-02-08T05:13:03.330Z,64.04
2019-02-08T05:14:03.288Z,64.71
2019-02-08T05:15:03.288Z,64.04
2019-02-08T05:16:03.281Z,64.52
2019-02-08T05:17:03.275Z,64.52
2019-02-08T05:18:03.297Z,63.85
2019-02-08T05:19:03.265Z,65.66
2019-02-08T05:20:03.272Z,65.84
2019-02-08T05:21:03.253Z,67.08
2019-02-08T05:22:03.250Z,65.56
2019-02-08T05:23:03.269Z,66.22
2019-02-08T05:24:03.237Z,64.71
2019-02-08T05:25:03.235Z,64.04
2019-02-08T05:26:03.246Z,65.47
2019-02-08T05:27:03.220Z,64.61
2019-02-08T05:28:03.246Z,64.42
2019-02-08T05:29:03.208Z,64.52
2019-02-08T05:30:03.205Z,64.42
2019-02-08T05:31:03.198Z,63.10
2019-02-08T05:32:03.191Z,63.95
2019-02-08T05:33:03.232Z,63.67
2019-02-08T05:34:03.186Z,64.81
2019-02-08T05:35:03.184Z,65.19
2019-02-08T05:36:03.173Z,62.15
2019-02-08T05:37:03.171Z,63.48
2019-02-08T05:38:03.188Z,64.04
2019-02-08T05:39:03.160Z,63.29
2019-02-08T05:40:03.146Z,62.82
2019-02-08T05:41:03.148Z,62.43
2019-02-08T05:42:03.152Z,63.67
2019-02-08T05:43:03.159Z,63.67
2019-02-08T05:44:03.128Z,63.76
2019-02-08T05:45:03.122Z,62.43
2019-02-08T05:46:03.120Z,64.61
2019-02-08T05:47:03.160Z,65.09
2019-02-08T05:48:03.185Z,64.14
2019-02-08T05:49:03.104Z,67.74
2019-02-08T05:50:03.102Z,68.88
2019-02-08T05:51:03.091Z,68.40
2019-02-08T05:52:03.087Z,66.32
2019-02-08T05:53:03.111Z,67.46
2019-02-08T05:54:03.081Z,62.82
2019-02-08T05:55:03.072Z,67.46
2019-02-08T05:56:03.067Z,66.60
2019-02-08T05:57:03.068Z,68.02
2019-02-08T05:58:03.088Z,67.18
2019-02-08T05:59:03.059Z,68.40
2019-02-08T06:00:03.052Z,69.07
2019-02-08T06:01:03.047Z,70.87
2019-02-08T06:02:03.051Z,68.79
2019-02-08T06:03:03.060Z,68.79
2019-02-08T06:04:03.031Z,69.73
2019-02-08T06:05:03.037Z,68.98
2019-02-08T06:06:03.017Z,71.44
2019-02-08T06:07:03.013Z,70.39
2019-02-08T06:08:03.035Z,69.07
2019-02-08T06:09:03.001Z,70.11
2019-02-08T06:10:03.002Z,69.64
2019-02-08T06:11:02.993Z,65.56
2019-02-08T06:12:02.986Z,67.18
2019-02-08T06:13:03.010Z,70.01
2019-02-08T06:14:02.998Z,69.26
2019-02-08T06:15:02.996Z,70.49
2019-02-08T06:16:02.965Z,69.64
2019-02-08T06:17:02.966Z,67.18
2019-02-08T06:18:02.989Z,65.94
2019-02-08T06:19:02.951Z,66.13
2019-02-08T06:20:03.754Z,67.93
2019-02-08T06:21:02.943Z,66.22
2019-02-08T06:22:02.938Z,68.02
2019-02-08T06:23:02.960Z,66.89
2019-02-08T06:24:02.927Z,67.55
2019-02-08T06:25:04.515Z,68.02
2019-02-08T06:26:02.926Z,67.18
2019-02-08T06:27:02.918Z,65.37
2019-02-08T06:28:02.937Z,68.02
2019-02-08T06:29:02.923Z,65.19
2019-02-08T06:30:02.903Z,64.71
2019-02-08T06:31:02.892Z,67.93
2019-02-08T06:32:02.887Z,68.79
2019-02-08T06:33:02.921Z,69.45
2019-02-08T06:34:02.885Z,69.54
2019-02-08T06:35:02.908Z,70.11
2019-02-08T06:36:02.873Z,69.64
2019-02-08T06:37:02.868Z,69.45
2019-02-08T06:38:02.860Z,68.50
2019-02-08T06:39:02.883Z,69.54
2019-02-08T06:40:02.859Z,70.72
2019-02-08T06:41:02.843Z,69.01
2019-02-08T06:42:02.843Z,70.11
2019-02-08T06:43:02.864Z,71.91
2019-02-08T06:44:02.832Z,70.49
2019-02-08T06:45:02.830Z,67.65
2019-02-08T06:46:02.822Z,70.78
2019-02-08T06:47:02.819Z,66.51
2019-02-08T06:48:02.840Z,70.01
2019-02-08T06:49:02.806Z,70.58
2019-02-08T06:50:02.809Z,66.13
2019-02-08T06:51:04.108Z,68.98
2019-02-08T06:52:02.790Z,69.82
2019-02-08T06:53:02.815Z,68.31
2019-02-08T06:54:02.783Z,70.68
2019-02-08T06:55:10.443Z,71.81
2019-02-08T06:56:02.774Z,68.69
2019-02-08T06:57:02.781Z,69.54
2019-02-08T06:58:02.765Z,66.60
2019-02-08T06:59:02.774Z,69.17
2019-02-08T07:00:02.761Z,67.36
2019-02-08T07:01:02.749Z,67.65
2019-02-08T07:02:02.746Z,69.64
2019-02-08T07:03:02.745Z,68.59
2019-02-08T07:04:02.761Z,70.11
2019-02-08T07:05:02.728Z,66.99
2019-02-08T07:06:02.726Z,71.15
2019-02-08T07:07:02.722Z,70.24
2019-02-08T07:08:02.717Z,67.55
2019-02-08T07:09:02.740Z,68.69
2019-02-08T07:10:02.714Z,68.15
2019-02-08T07:11:02.700Z,70.05
2019-02-08T07:12:02.695Z,70.05
2019-02-08T07:13:02.710Z,69.10
2019-02-08T07:14:02.716Z,68.06
2019-02-08T07:15:02.682Z,70.90
2019-02-08T07:16:02.676Z,69.77
2019-02-08T07:17:02.671Z,71.09
2019-02-08T07:18:02.670Z,70.24
2019-02-08T07:19:02.736Z,71.47
2019-02-08T07:20:02.666Z,71.19
2019-02-08T07:21:02.656Z,74.69
2019-02-08T07:22:02.647Z,73.46
2019-02-08T07:23:02.643Z,71.19
2019-02-08T07:24:02.673Z,71.38
2019-02-08T07:25:02.646Z,70.81
2019-02-08T07:26:02.632Z,72.99
2019-02-08T07:27:02.631Z,72.52
2019-02-08T07:28:02.622Z,72.23
2019-02-08T07:29:02.650Z,74.32
2019-02-08T07:30:02.616Z,73.84
2019-02-08T07:31:02.610Z,73.75
2019-02-08T07:32:02.636Z,74.69
2019-02-08T07:33:02.600Z,76.21
2019-02-08T07:34:02.596Z,77.16
2019-02-08T07:35:02.627Z,76.59
2019-02-08T07:36:02.595Z,75.17
2019-02-08T07:37:02.585Z,78.39
2019-02-08T07:38:02.579Z,79.34
2019-02-08T07:39:02.581Z,78.49
2019-02-08T07:40:02.600Z,78.77
2019-02-08T07:41:02.566Z,79.91
2019-02-08T07:42:02.563Z,79.47
2019-02-08T07:43:02.561Z,85.45
2019-02-08T07:44:02.645Z,88.10
2019-02-08T07:45:02.591Z,90.86
2019-02-08T07:46:02.547Z,92.76
2019-02-08T07:47:02.546Z,89.06
2019-02-08T07:48:02.570Z,87.06
2019-02-08T07:49:02.540Z,85.17
2019-02-08T07:50:02.534Z,84.41
2019-02-08T07:51:02.560Z,89.15
2019-02-08T07:52:02.530Z,90.95
2019-02-08T07:53:02.529Z,91.47
2019-02-08T07:54:02.522Z,95.84
2019-02-08T07:55:02.545Z,99.99
2019-02-08T07:56:02.515Z,99.99
2019-02-08T07:57:02.515Z,99.99
2019-02-08T07:58:02.509Z,99.99
2019-02-08T07:59:02.506Z,99.99
2019-02-08T08:00:02.533Z,99.99
2019-02-08T08:01:02.505Z,99.99
2019-02-08T08:02:02.499Z,99.99
2019-02-08T08:03:02.529Z,99.99
2019-02-08T08:04:02.502Z,99.99
2019-02-08T08:05:02.500Z,99.99
2019-02-08T08:06:02.537Z,99.99
2019-02-08T08:07:02.500Z,99.99
2019-02-08T08:08:02.500Z,99.99
2019-02-08T08:09:02.505Z,99.99
2019-02-08T08:10:02.503Z,99.99
2019-02-08T08:11:02.532Z,99.99
2019-02-08T08:12:02.505Z,99.99
2019-02-08T08:13:02.505Z,99.99
2019-02-08T08:14:02.499Z,99.99
2019-02-08T08:15:02.499Z,99.99
2019-02-08T08:16:02.529Z,99.99
2019-02-08T08:17:02.500Z,99.99
2019-02-08T08:18:02.515Z,99.99
2019-02-08T08:19:02.507Z,99.99
2019-02-08T08:20:02.509Z,99.99
2019-02-08T08:21:02.533Z,99.99
2019-02-08T08:22:02.502Z,99.99
2019-02-08T08:23:02.497Z,99.99
2019-02-08T08:24:02.497Z,99.99
2019-02-08T08:25:02.497Z,99.99
2019-02-08T08:26:02.556Z,99.99
2019-02-08T08:27:02.522Z,99.99
2019-02-08T08:28:02.498Z,99.99
2019-02-08T08:29:02.495Z,99.99
2019-02-08T08:30:02.492Z,99.99
2019-02-08T08:31:02.489Z,99.99
2019-02-08T08:32:02.516Z,99.99
2019-02-08T08:33:02.489Z,99.99
2019-02-08T08:34:02.492Z,99.99
2019-02-08T08:35:02.491Z,99.99
2019-02-08T08:36:02.497Z,99.99
2019-02-08T08:37:02.523Z,99.99
2019-02-08T08:38:02.488Z,99.99
2019-02-08T08:39:02.490Z,99.99
2019-02-08T08:40:02.491Z,99.99
2019-02-08T08:41:02.498Z,99.99
2019-02-08T08:42:02.535Z,99.99
2019-02-08T08:43:02.494Z,99.99
2019-02-08T08:44:02.654Z,99.99
2019-02-08T08:45:02.498Z,99.99
2019-02-08T08:46:02.499Z,99.99
2019-02-08T08:47:02.528Z,99.99
2019-02-08T08:48:02.499Z,99.99
2019-02-08T08:49:02.498Z,99.99
2019-02-08T08:50:02.500Z,99.99
2019-02-08T08:51:02.499Z,99.99
2019-02-08T08:52:02.526Z,99.99
2019-02-08T08:53:02.497Z,99.99
2019-02-08T08:54:02.497Z,99.99
2019-02-08T08:55:02.498Z,99.99
2019-02-08T08:56:02.503Z,99.99
2019-02-08T08:57:02.530Z,99.99
2019-02-08T08:58:02.508Z,99.99
2019-02-08T08:59:02.498Z,99.99
2019-02-08T09:00:02.500Z,99.99
2019-02-08T09:01:02.501Z,99.99
2019-02-08T09:02:02.530Z,99.99
2019-02-08T09:03:02.503Z,99.99
2019-02-08T09:04:02.509Z,99.99
2019-02-08T09:05:02.509Z,99.99
2019-02-08T09:06:08.382Z,99.99
2019-02-08T09:07:02.536Z,99.99
2019-02-08T09:08:02.520Z,99.99
2019-02-08T09:09:02.513Z,99.99
2019-02-08T09:10:02.516Z,99.99
2019-02-08T09:11:02.515Z,99.99
2019-02-08T09:12:02.523Z,99.99
2019-02-08T09:13:02.589Z,99.99
2019-02-08T09:14:02.514Z,99.99
2019-02-08T09:15:02.521Z,99.99
2019-02-08T09:16:02.518Z,99.99
2019-02-08T09:17:02.525Z,99.99
2019-02-08T09:18:02.548Z,99.99
2019-02-08T09:19:02.532Z,99.99
2019-02-08T09:20:02.532Z,99.99
2019-02-08T09:21:02.533Z,99.99
2019-02-08T09:22:02.531Z,99.99
2019-02-08T09:23:02.559Z,99.99
2019-02-08T09:24:02.536Z,99.99
2019-02-08T09:25:02.540Z,99.99
2019-02-08T09:26:02.543Z,99.99
2019-02-08T09:27:03.273Z,99.99
2019-02-08T09:28:02.630Z,99.99
2019-02-08T09:29:02.582Z,99.99
2019-02-08T09:30:02.551Z,99.99
2019-02-08T09:31:02.550Z,99.99
2019-02-08T09:32:03.222Z,99.99
2019-02-08T09:33:05.290Z,99.99
2019-02-08T09:34:02.587Z,99.99
2019-02-08T09:35:02.559Z,99.99
2019-02-08T09:36:02.560Z,99.99
2019-02-08T09:37:02.586Z,99.99
2019-02-08T09:38:02.563Z,99.99
2019-02-08T09:39:02.608Z,99.99
2019-02-08T09:40:02.577Z,99.99
2019-02-08T09:41:02.566Z,99.99
2019-02-08T09:42:02.576Z,99.99
2019-02-08T09:43:02.561Z,99.99
2019-02-08T09:44:02.571Z,99.99
2019-02-08T09:45:02.601Z,99.99
2019-02-08T09:46:02.568Z,99.99
2019-02-08T09:47:02.571Z,99.99
2019-02-08T09:48:02.564Z,99.99
2019-02-08T09:49:02.565Z,99.99
2019-02-08T09:50:02.587Z,99.99
2019-02-08T09:51:02.554Z,99.99
2019-02-08T09:52:02.565Z,99.99
2019-02-08T09:53:02.547Z,99.99
2019-02-08T09:54:02.567Z,99.99
2019-02-08T09:55:02.586Z,99.99
2019-02-08T09:56:02.551Z,99.99
2019-02-08T09:57:02.556Z,99.99
2019-02-08T09:58:02.568Z,99.99
2019-02-08T09:59:02.547Z,99.99
2019-02-08T10:00:02.715Z,99.99
2019-02-08T10:01:03.539Z,99.99
2019-02-08T10:02:02.731Z,99.99
2019-02-08T10:03:02.538Z,99.99
2019-02-08T10:04:02.539Z,99.99
2019-02-08T10:05:02.565Z,99.99
2019-02-08T10:06:02.536Z,99.99
2019-02-08T10:07:03.200Z,99.99
2019-02-08T10:08:02.534Z,99.99
2019-02-08T10:09:02.527Z,99.99
2019-02-08T10:10:03.141Z,99.99
2019-02-08T10:11:02.526Z,99.99
2019-02-08T10:12:02.521Z,99.99
2019-02-08T10:13:02.520Z,99.99
2019-02-08T10:14:02.516Z,99.99
2019-02-08T10:15:02.543Z,99.99
2019-02-08T10:16:02.515Z,99.99
2019-02-08T10:17:02.512Z,99.99
2019-02-08T10:18:02.511Z,99.99
2019-02-08T10:19:02.506Z,99.99
2019-02-08T10:20:02.533Z,99.99
2019-02-08T10:21:02.510Z,99.99
2019-02-08T10:22:02.502Z,99.99
2019-02-08T10:23:02.501Z,99.99
2019-02-08T10:24:02.497Z,99.99
2019-02-08T10:25:02.677Z,99.99
2019-02-08T10:26:05.531Z,99.99
2019-02-08T10:27:02.490Z,99.99
2019-02-08T10:28:02.489Z,99.99
2019-02-08T10:29:02.489Z,99.99
2019-02-08T10:30:02.518Z,99.99
2019-02-08T10:31:02.481Z,99.99
2019-02-08T10:32:02.481Z,99.99
2019-02-08T10:33:02.478Z,99.99
2019-02-08T10:34:02.474Z,99.99
2019-02-08T10:35:02.502Z,99.99
2019-02-08T10:36:02.460Z,99.99
2019-02-08T10:37:02.469Z,99.99
2019-02-08T10:38:02.467Z,99.99
2019-02-08T10:39:02.459Z,99.99
2019-02-08T10:40:02.482Z,99.99
2019-02-08T10:41:02.457Z,99.99
2019-02-08T10:42:02.438Z,99.99
2019-02-08T10:43:02.452Z,99.99
2019-02-08T10:44:02.479Z,99.99
2019-02-08T10:45:02.473Z,99.99
2019-02-08T10:46:02.442Z,99.99
2019-02-08T10:47:02.500Z,99.99
2019-02-08T10:48:02.432Z,99.99
2019-02-08T10:49:02.465Z,99.99
2019-02-08T10:50:02.439Z,99.99
2019-02-08T10:51:02.432Z,99.99
2019-02-08T10:52:02.427Z,99.99
2019-02-08T10:53:02.457Z,99.99
2019-02-08T10:54:02.426Z,99.99
2019-02-08T10:55:02.447Z,99.99
2019-02-08T10:56:02.422Z,99.99
2019-02-08T10:57:02.421Z,99.99
2019-02-08T10:58:02.421Z,99.99
2019-02-08T10:59:02.412Z,99.99
2019-02-08T11:00:02.447Z,99.99
2019-02-08T11:01:02.407Z,99.99
2019-02-08T11:02:02.409Z,99.99
2019-02-08T11:03:02.399Z,99.99
2019-02-08T11:04:02.431Z,99.99
2019-02-08T11:05:02.398Z,99.99
2019-02-08T11:06:02.392Z,99.99
2019-02-08T11:07:02.399Z,99.99
2019-02-08T11:08:02.387Z,99.99
2019-02-08T11:09:02.420Z,99.99
2019-02-08T11:10:02.384Z,99.99
2019-02-08T11:11:02.380Z,99.99
2019-02-08T11:12:02.375Z,99.99
2019-02-08T11:13:02.379Z,99.99
2019-02-08T11:14:02.401Z,99.99
2019-02-08T11:15:02.372Z,99.99
2019-02-08T11:16:02.367Z,99.99
2019-02-08T11:17:02.372Z,99.99
2019-02-08T11:18:02.362Z,99.99
2019-02-08T11:19:02.390Z,99.99
2019-02-08T11:20:02.384Z,99.99
2019-02-08T11:21:02.351Z,99.99
2019-02-08T11:22:02.347Z,99.99
2019-02-08T11:23:02.347Z,99.99
2019-02-08T11:24:02.344Z,99.99
2019-02-08T11:25:02.371Z,99.99
2019-02-08T11:26:02.348Z,99.99
2019-02-08T11:27:02.339Z,99.99
2019-02-08T11:28:02.336Z,99.99
2019-02-08T11:29:02.338Z,99.99
2019-02-08T11:30:02.366Z,99.99
2019-02-08T11:31:02.337Z,99.99
2019-02-08T11:32:02.341Z,99.99
2019-02-08T11:33:02.327Z,99.99
2019-02-08T11:34:02.323Z,99.99
2019-02-08T11:35:02.347Z,99.99
2019-02-08T11:36:02.321Z,99.99
2019-02-08T11:37:02.322Z,99.99
2019-02-08T11:38:02.313Z,99.99
2019-02-08T11:39:02.312Z,99.99
2019-02-08T11:40:02.342Z,99.99
2019-02-08T11:41:02.312Z,99.99
2019-02-08T11:42:02.306Z,99.99
2019-02-08T11:43:02.309Z,99.99
2019-02-08T11:44:02.302Z,99.99
2019-02-08T11:45:02.330Z,99.99
2019-02-08T11:46:02.306Z,99.99
2019-02-08T11:47:02.308Z,99.99
2019-02-08T11:48:02.299Z,99.99
2019-02-08T11:49:02.347Z,99.99
2019-02-08T11:50:02.325Z,99.99
2019-02-08T11:51:02.315Z,99.99
2019-02-08T11:52:02.300Z,99.99
2019-02-08T11:53:02.307Z,99.99
2019-02-08T11:54:02.301Z,99.99
2019-02-08T11:55:02.335Z,99.99
2019-02-08T11:56:02.307Z,99.99
2019-02-08T11:57:02.310Z,99.99
2019-02-08T11:58:02.310Z,99.99
2019-02-08T11:59:02.341Z,99.99
2019-02-08T12:00:02.316Z,99.99
2019-02-08T12:01:02.320Z,99.99
2019-02-08T12:02:02.323Z,99.99
2019-02-08T12:03:02.326Z,99.99
2019-02-08T12:04:02.347Z,99.99
2019-02-08T12:05:02.329Z,99.99
2019-02-08T12:06:02.330Z,99.99
2019-02-08T12:07:02.331Z,99.99
2019-02-08T12:08:02.348Z,99.99
2019-02-08T12:09:02.363Z,99.99
2019-02-08T12:10:02.339Z,99.99
2019-02-08T12:11:02.341Z,99.99
2019-02-08T12:12:02.341Z,99.99
2019-02-08T12:13:02.343Z,99.99
2019-02-08T12:14:03.159Z,99.99
2019-02-08T12:15:03.283Z,99.99
2019-02-08T12:16:02.348Z,99.99
2019-02-08T12:17:02.354Z,99.99
2019-02-08T12:18:02.361Z,99.99
2019-02-08T12:19:02.384Z,99.99
2019-02-08T12:20:02.355Z,99.99
2019-02-08T12:21:02.356Z,99.99
2019-02-08T12:22:02.357Z,99.99
2019-02-08T12:23:02.360Z,99.99
2019-02-08T12:24:02.393Z,99.99
2019-02-08T12:25:02.369Z,99.99
2019-02-08T12:26:02.370Z,99.99
2019-02-08T12:27:02.374Z,99.99
2019-02-08T12:28:02.377Z,99.99
2019-02-08T12:29:02.417Z,99.99
2019-02-08T12:30:02.381Z,99.99
2019-02-08T12:31:02.392Z,99.99
2019-02-08T12:32:02.399Z,99.99
2019-02-08T12:33:02.393Z,99.99
2019-02-08T12:34:02.425Z,99.99
2019-02-08T12:35:02.409Z,99.99
2019-02-08T12:36:02.405Z,99.99
2019-02-08T12:37:02.408Z,99.99
2019-02-08T12:38:02.413Z,99.99
2019-02-08T12:39:03.287Z,99.99
2019-02-08T12:40:02.417Z,99.99
2019-02-08T12:41:09.505Z,99.99
2019-02-08T12:42:02.436Z,99.99
2019-02-08T12:43:02.447Z,99.99
2019-02-08T12:44:02.476Z,99.99
2019-02-08T12:45:02.449Z,99.99
2019-02-08T12:46:02.457Z,99.99
2019-02-08T12:47:02.456Z,99.99
2019-02-08T12:48:02.455Z,99.99
2019-02-08T12:49:02.493Z,99.99
2019-02-08T12:50:02.470Z,99.99
2019-02-08T12:51:02.492Z,99.99
2019-02-08T12:52:02.474Z,99.99